sensor_id;sensor_type;location;lat;lon;timestamp;P1;durP1;ratioP1;P2;durP2;ratioP2
2546;SDS011;1283;47.982;7.834;2022-08-04T00:01:04;2.60;;;1.88;;
2546;SDS011;1283;47.982;7.834;2022-08-04T00:03:34;8.05;;;1.90;;
2546;SDS011;1283;47.982;7.834;2022-08-04T00:06:08;2.50;;;1.88;;
2546;SDS011;1283;47.982;7.834;2022-08-04T00:08:39;5.28;;;1.80;;
2546;SDS011;1283;47.982;7.834;2022-08-04T00:11:09;8.52;;;2.72;;
2546;SDS011;1283;47.982;7.834;2022-08-04T00:13:37;2.50;;;2.00;;
2546;SDS011;1283;47.982;7.834;2022-08-04T00:16:05;3.22;;;2.08;;
2546;SDS011;1283;47.982;7.834;2022-08-04T00:18:33;2.58;;;2.28;;
2546;SDS011;1283;47.982;7.834;2022-08-04T00:21:03;3.33;;;2.05;;
2546;SDS011;1283;47.982;7.834;2022-08-04T00:23:32;3.03;;;1.90;;
2546;SDS011;1283;47.982;7.834;2022-08-04T00:25:59;2.55;;;2.00;;
2546;SDS011;1283;47.982;7.834;2022-08-04T00:28:26;2.60;;;1.80;;
2546;SDS011;1283;47.982;7.834;2022-08-04T00:30:53;4.05;;;2.25;;
2546;SDS011;1283;47.982;7.834;2022-08-04T00:33:20;2.63;;;1.70;;
2546;SDS011;1283;47.982;7.834;2022-08-04T00:35:47;5.90;;;2.08;;
2546;SDS011;1283;47.982;7.834;2022-08-04T00:38:14;2.83;;;1.77;;
2546;SDS011;1283;47.982;7.834;2022-08-04T00:40:46;2.40;;;1.65;;
2546;SDS011;1283;47.982;7.834;2022-08-04T00:43:18;4.07;;;1.83;;
2546;SDS011;1283;47.982;7.834;2022-08-04T00:45:55;16.75;;;2.10;;
2546;SDS011;1283;47.982;7.834;2022-08-04T00:48:55;2.58;;;1.80;;
2546;SDS011;1283;47.982;7.834;2022-08-04T00:51:44;2.58;;;1.50;;
2546;SDS011;1283;47.982;7.834;2022-08-04T00:54:16;1.90;;;1.60;;
2546;SDS011;1283;47.982;7.834;2022-08-04T00:59:43;8.82;;;2.20;;
2546;SDS011;1283;47.982;7.834;2022-08-04T01:02:22;9.38;;;2.08;;
2546;SDS011;1283;47.982;7.834;2022-08-04T01:04:56;2.13;;;1.80;;
2546;SDS011;1283;47.982;7.834;2022-08-04T01:10:20;2.58;;;1.88;;
2546;SDS011;1283;47.982;7.834;2022-08-04T01:13:00;4.43;;;1.83;;
2546;SDS011;1283;47.982;7.834;2022-08-04T01:15:39;3.60;;;1.92;;
2546;SDS011;1283;47.982;7.834;2022-08-04T01:18:10;3.55;;;2.10;;
2546;SDS011;1283;47.982;7.834;2022-08-04T01:20:47;2.75;;;1.90;;
2546;SDS011;1283;47.982;7.834;2022-08-04T01:23:32;3.58;;;1.90;;
2546;SDS011;1283;47.982;7.834;2022-08-04T01:26:12;2.72;;;2.00;;
2546;SDS011;1283;47.982;7.834;2022-08-04T01:29:04;3.17;;;2.13;;
2546;SDS011;1283;47.982;7.834;2022-08-04T01:31:34;5.82;;;1.90;;
2546;SDS011;1283;47.982;7.834;2022-08-04T01:34:07;3.65;;;1.80;;
2546;SDS011;1283;47.982;7.834;2022-08-04T01:36:36;2.90;;;2.17;;
2546;SDS011;1283;47.982;7.834;2022-08-04T01:39:08;8.70;;;2.20;;
2546;SDS011;1283;47.982;7.834;2022-08-04T01:41:49;4.18;;;1.83;;
2546;SDS011;1283;47.982;7.834;2022-08-04T01:44:18;2.75;;;1.67;;
2546;SDS011;1283;47.982;7.834;2022-08-04T01:46:46;2.58;;;1.90;;
2546;SDS011;1283;47.982;7.834;2022-08-04T01:49:15;3.83;;;1.75;;
2546;SDS011;1283;47.982;7.834;2022-08-04T01:51:42;5.68;;;1.70;;
2546;SDS011;1283;47.982;7.834;2022-08-04T01:54:09;1.92;;;1.60;;
2546;SDS011;1283;47.982;7.834;2022-08-04T01:56:36;1.70;;;1.50;;
2546;SDS011;1283;47.982;7.834;2022-08-04T01:59:03;2.38;;;1.42;;
2546;SDS011;1283;47.982;7.834;2022-08-04T02:01:31;5.45;;;2.05;;
2546;SDS011;1283;47.982;7.834;2022-08-04T02:04:00;4.78;;;1.70;;
2546;SDS011;1283;47.982;7.834;2022-08-04T02:06:29;4.95;;;1.85;;
2546;SDS011;1283;47.982;7.834;2022-08-04T02:08:59;3.00;;;1.85;;
2546;SDS011;1283;47.982;7.834;2022-08-04T02:11:29;2.55;;;1.85;;
2546;SDS011;1283;47.982;7.834;2022-08-04T02:13:57;1.85;;;1.52;;
2546;SDS011;1283;47.982;7.834;2022-08-04T02:16:37;4.20;;;1.75;;
2546;SDS011;1283;47.982;7.834;2022-08-04T02:19:10;2.08;;;1.60;;
2546;SDS011;1283;47.982;7.834;2022-08-04T02:21:41;1.83;;;1.55;;
2546;SDS011;1283;47.982;7.834;2022-08-04T02:24:12;3.60;;;1.67;;
2546;SDS011;1283;47.982;7.834;2022-08-04T02:26:40;2.50;;;1.60;;
2546;SDS011;1283;47.982;7.834;2022-08-04T02:29:09;4.32;;;1.70;;
2546;SDS011;1283;47.982;7.834;2022-08-04T02:31:42;1.85;;;1.45;;
2546;SDS011;1283;47.982;7.834;2022-08-04T02:34:13;2.22;;;1.63;;
2546;SDS011;1283;47.982;7.834;2022-08-04T02:36:42;8.95;;;1.70;;
2546;SDS011;1283;47.982;7.834;2022-08-04T02:39:09;4.47;;;1.50;;
2546;SDS011;1283;47.982;7.834;2022-08-04T02:41:38;2.70;;;1.85;;
2546;SDS011;1283;47.982;7.834;2022-08-04T02:44:06;3.42;;;1.70;;
2546;SDS011;1283;47.982;7.834;2022-08-04T02:46:34;5.28;;;1.80;;
2546;SDS011;1283;47.982;7.834;2022-08-04T02:49:03;3.05;;;2.05;;
2546;SDS011;1283;47.982;7.834;2022-08-04T02:51:31;2.08;;;1.67;;
2546;SDS011;1283;47.982;7.834;2022-08-04T02:53:59;2.70;;;1.85;;
2546;SDS011;1283;47.982;7.834;2022-08-04T02:56:27;5.90;;;2.05;;
2546;SDS011;1283;47.982;7.834;2022-08-04T02:58:56;1.98;;;1.45;;
2546;SDS011;1283;47.982;7.834;2022-08-04T03:01:24;4.45;;;1.35;;
2546;SDS011;1283;47.982;7.834;2022-08-04T03:03:55;4.93;;;1.55;;
2546;SDS011;1283;47.982;7.834;2022-08-04T03:06:43;4.45;;;1.70;;
2546;SDS011;1283;47.982;7.834;2022-08-04T03:09:29;3.92;;;1.80;;
2546;SDS011;1283;47.982;7.834;2022-08-04T03:12:25;3.08;;;1.73;;
2546;SDS011;1283;47.982;7.834;2022-08-04T03:15:08;7.70;;;1.73;;
2546;SDS011;1283;47.982;7.834;2022-08-04T03:17:51;2.30;;;1.75;;
2546;SDS011;1283;47.982;7.834;2022-08-04T03:20:31;3.03;;;1.45;;
2546;SDS011;1283;47.982;7.834;2022-08-04T03:23:23;2.67;;;2.05;;
2546;SDS011;1283;47.982;7.834;2022-08-04T03:26:10;2.38;;;1.75;;
2546;SDS011;1283;47.982;7.834;2022-08-04T03:29:17;4.90;;;1.50;;
2546;SDS011;1283;47.982;7.834;2022-08-04T03:32:00;3.17;;;1.95;;
2546;SDS011;1283;47.982;7.834;2022-08-04T03:35:00;3.40;;;1.45;;
2546;SDS011;1283;47.982;7.834;2022-08-04T03:37:37;2.17;;;1.58;;
2546;SDS011;1283;47.982;7.834;2022-08-04T03:40:34;1.70;;;1.40;;
2546;SDS011;1283;47.982;7.834;2022-08-04T03:46:24;2.65;;;1.83;;
2546;SDS011;1283;47.982;7.834;2022-08-04T03:49:34;4.60;;;1.65;;
2546;SDS011;1283;47.982;7.834;2022-08-04T03:52:11;7.28;;;1.70;;
2546;SDS011;1283;47.982;7.834;2022-08-04T03:55:20;2.03;;;1.70;;
2546;SDS011;1283;47.982;7.834;2022-08-04T03:58:14;6.47;;;1.67;;
2546;SDS011;1283;47.982;7.834;2022-08-04T04:00:54;4.93;;;1.95;;
2546;SDS011;1283;47.982;7.834;2022-08-04T04:03:32;2.65;;;1.60;;
2546;SDS011;1283;47.982;7.834;2022-08-04T04:06:15;1.80;;;1.60;;
2546;SDS011;1283;47.982;7.834;2022-08-04T04:11:53;2.50;;;1.70;;
2546;SDS011;1283;47.982;7.834;2022-08-04T04:17:45;4.18;;;1.58;;
2546;SDS011;1283;47.982;7.834;2022-08-04T04:20:24;3.03;;;1.65;;
2546;SDS011;1283;47.982;7.834;2022-08-04T04:23:08;2.45;;;1.70;;
2546;SDS011;1283;47.982;7.834;2022-08-04T04:25:54;4.28;;;1.80;;
2546;SDS011;1283;47.982;7.834;2022-08-04T04:28:42;3.00;;;1.80;;
2546;SDS011;1283;47.982;7.834;2022-08-04T04:31:28;4.10;;;1.80;;
2546;SDS011;1283;47.982;7.834;2022-08-04T04:34:04;7.18;;;1.98;;
2546;SDS011;1283;47.982;7.834;2022-08-04T04:36:39;4.10;;;1.92;;
2546;SDS011;1283;47.982;7.834;2022-08-04T04:39:15;5.10;;;2.00;;
2546;SDS011;1283;47.982;7.834;2022-08-04T04:41:56;7.25;;;2.25;;
2546;SDS011;1283;47.982;7.834;2022-08-04T04:44:44;4.88;;;1.90;;
2546;SDS011;1283;47.982;7.834;2022-08-04T04:47:23;2.00;;;1.80;;
2546;SDS011;1283;47.982;7.834;2022-08-04T04:49:56;4.53;;;2.38;;
2546;SDS011;1283;47.982;7.834;2022-08-04T04:52:31;5.18;;;1.90;;
2546;SDS011;1283;47.982;7.834;2022-08-04T04:55:03;5.15;;;2.08;;
2546;SDS011;1283;47.982;7.834;2022-08-04T04:57:35;4.07;;;1.73;;
2546;SDS011;1283;47.982;7.834;2022-08-04T05:00:05;2.42;;;2.00;;
2546;SDS011;1283;47.982;7.834;2022-08-04T05:02:42;2.53;;;1.95;;
2546;SDS011;1283;47.982;7.834;2022-08-04T05:11:12;5.78;;;1.98;;
2546;SDS011;1283;47.982;7.834;2022-08-04T05:13:51;4.13;;;2.17;;
2546;SDS011;1283;47.982;7.834;2022-08-04T05:16:23;5.15;;;2.00;;
2546;SDS011;1283;47.982;7.834;2022-08-04T05:18:53;2.63;;;1.85;;
2546;SDS011;1283;47.982;7.834;2022-08-04T05:21:27;2.90;;;1.90;;
2546;SDS011;1283;47.982;7.834;2022-08-04T05:24:01;8.20;;;2.13;;
2546;SDS011;1283;47.982;7.834;2022-08-04T05:26:31;4.30;;;2.03;;
2546;SDS011;1283;47.982;7.834;2022-08-04T05:29:01;4.85;;;1.88;;
2546;SDS011;1283;47.982;7.834;2022-08-04T05:31:31;3.85;;;1.90;;
2546;SDS011;1283;47.982;7.834;2022-08-04T05:33:59;3.95;;;1.52;;
2546;SDS011;1283;47.982;7.834;2022-08-04T05:36:32;9.23;;;1.92;;
2546;SDS011;1283;47.982;7.834;2022-08-04T05:39:00;8.98;;;2.10;;
2546;SDS011;1283;47.982;7.834;2022-08-04T05:41:27;3.03;;;1.75;;
2546;SDS011;1283;47.982;7.834;2022-08-04T05:43:54;4.57;;;2.00;;
2546;SDS011;1283;47.982;7.834;2022-08-04T05:46:21;5.40;;;1.88;;
2546;SDS011;1283;47.982;7.834;2022-08-04T05:48:49;3.42;;;1.48;;
2546;SDS011;1283;47.982;7.834;2022-08-04T05:51:17;6.40;;;1.60;;
2546;SDS011;1283;47.982;7.834;2022-08-04T05:53:43;2.35;;;1.40;;
2546;SDS011;1283;47.982;7.834;2022-08-04T05:56:11;3.83;;;1.45;;
2546;SDS011;1283;47.982;7.834;2022-08-04T05:58:39;3.75;;;1.50;;
2546;SDS011;1283;47.982;7.834;2022-08-04T06:01:07;2.47;;;1.42;;
2546;SDS011;1283;47.982;7.834;2022-08-04T06:03:34;3.45;;;1.40;;
2546;SDS011;1283;47.982;7.834;2022-08-04T06:06:03;5.65;;;1.48;;
2546;SDS011;1283;47.982;7.834;2022-08-04T06:08:30;5.38;;;1.50;;
2546;SDS011;1283;47.982;7.834;2022-08-04T06:10:58;2.42;;;1.65;;
2546;SDS011;1283;47.982;7.834;2022-08-04T06:13:29;11.77;;;1.70;;
2546;SDS011;1283;47.982;7.834;2022-08-04T06:15:56;3.05;;;1.40;;
2546;SDS011;1283;47.982;7.834;2022-08-04T06:18:24;3.97;;;1.50;;
2546;SDS011;1283;47.982;7.834;2022-08-04T06:20:54;5.38;;;1.75;;
2546;SDS011;1283;47.982;7.834;2022-08-04T06:23:25;7.03;;;1.85;;
2546;SDS011;1283;47.982;7.834;2022-08-04T06:25:54;6.13;;;1.77;;
2546;SDS011;1283;47.982;7.834;2022-08-04T06:28:22;10.13;;;1.95;;
2546;SDS011;1283;47.982;7.834;2022-08-04T06:30:49;5.18;;;1.95;;
2546;SDS011;1283;47.982;7.834;2022-08-04T06:33:17;8.60;;;2.75;;
2546;SDS011;1283;47.982;7.834;2022-08-04T06:35:51;6.03;;;2.00;;
2546;SDS011;1283;47.982;7.834;2022-08-04T06:38:19;3.88;;;1.70;;
2546;SDS011;1283;47.982;7.834;2022-08-04T06:40:48;8.13;;;2.08;;
2546;SDS011;1283;47.982;7.834;2022-08-04T06:43:14;13.73;;;2.22;;
2546;SDS011;1283;47.982;7.834;2022-08-04T06:45:41;2.85;;;1.80;;
2546;SDS011;1283;47.982;7.834;2022-08-04T06:48:11;9.00;;;2.30;;
2546;SDS011;1283;47.982;7.834;2022-08-04T06:50:39;5.63;;;2.15;;
2546;SDS011;1283;47.982;7.834;2022-08-04T06:53:06;4.55;;;2.13;;
2546;SDS011;1283;47.982;7.834;2022-08-04T06:55:32;4.28;;;2.35;;
2546;SDS011;1283;47.982;7.834;2022-08-04T06:58:01;16.38;;;2.35;;
2546;SDS011;1283;47.982;7.834;2022-08-04T07:00:27;4.20;;;1.73;;
2546;SDS011;1283;47.982;7.834;2022-08-04T07:02:56;12.02;;;2.38;;
2546;SDS011;1283;47.982;7.834;2022-08-04T07:05:23;3.33;;;1.70;;
2546;SDS011;1283;47.982;7.834;2022-08-04T07:07:50;5.57;;;2.10;;
2546;SDS011;1283;47.982;7.834;2022-08-04T07:10:17;9.10;;;2.10;;
2546;SDS011;1283;47.982;7.834;2022-08-04T07:12:44;2.25;;;1.90;;
2546;SDS011;1283;47.982;7.834;2022-08-04T07:15:12;5.50;;;2.20;;
2546;SDS011;1283;47.982;7.834;2022-08-04T07:17:40;7.20;;;2.15;;
2546;SDS011;1283;47.982;7.834;2022-08-04T07:20:07;3.53;;;2.00;;
2546;SDS011;1283;47.982;7.834;2022-08-04T07:22:34;3.38;;;2.10;;
2546;SDS011;1283;47.982;7.834;2022-08-04T07:25:01;4.75;;;2.17;;
2546;SDS011;1283;47.982;7.834;2022-08-04T07:27:28;11.32;;;2.50;;
2546;SDS011;1283;47.982;7.834;2022-08-04T07:29:54;10.23;;;2.10;;
2546;SDS011;1283;47.982;7.834;2022-08-04T07:32:22;6.65;;;2.28;;
2546;SDS011;1283;47.982;7.834;2022-08-04T07:34:49;9.30;;;2.05;;
2546;SDS011;1283;47.982;7.834;2022-08-04T07:37:16;11.23;;;2.17;;
2546;SDS011;1283;47.982;7.834;2022-08-04T07:39:42;2.15;;;1.95;;
2546;SDS011;1283;47.982;7.834;2022-08-04T07:42:09;6.03;;;1.90;;
2546;SDS011;1283;47.982;7.834;2022-08-04T07:44:36;10.20;;;1.90;;
2546;SDS011;1283;47.982;7.834;2022-08-04T07:47:04;2.42;;;2.08;;
2546;SDS011;1283;47.982;7.834;2022-08-04T07:49:33;4.18;;;1.85;;
2546;SDS011;1283;47.982;7.834;2022-08-04T07:51:59;9.88;;;2.55;;
2546;SDS011;1283;47.982;7.834;2022-08-04T07:54:26;6.22;;;2.47;;
2546;SDS011;1283;47.982;7.834;2022-08-04T07:56:53;5.88;;;2.60;;
2546;SDS011;1283;47.982;7.834;2022-08-04T07:59:20;6.80;;;2.80;;
2546;SDS011;1283;47.982;7.834;2022-08-04T08:01:46;7.80;;;2.50;;
2546;SDS011;1283;47.982;7.834;2022-08-04T08:04:13;15.15;;;2.50;;
2546;SDS011;1283;47.982;7.834;2022-08-04T08:06:41;6.90;;;2.28;;
2546;SDS011;1283;47.982;7.834;2022-08-04T08:09:08;4.18;;;2.60;;
2546;SDS011;1283;47.982;7.834;2022-08-04T08:11:36;5.68;;;2.70;;
2546;SDS011;1283;47.982;7.834;2022-08-04T08:14:02;6.53;;;2.30;;
2546;SDS011;1283;47.982;7.834;2022-08-04T08:16:28;4.63;;;2.40;;
2546;SDS011;1283;47.982;7.834;2022-08-04T08:18:57;3.85;;;2.40;;
2546;SDS011;1283;47.982;7.834;2022-08-04T08:21:24;4.13;;;2.40;;
2546;SDS011;1283;47.982;7.834;2022-08-04T08:23:52;7.97;;;2.35;;
2546;SDS011;1283;47.982;7.834;2022-08-04T08:26:19;5.55;;;2.40;;
2546;SDS011;1283;47.982;7.834;2022-08-04T08:28:45;3.33;;;2.20;;
2546;SDS011;1283;47.982;7.834;2022-08-04T08:31:12;8.35;;;2.70;;
2546;SDS011;1283;47.982;7.834;2022-08-04T08:33:38;7.20;;;2.00;;
2546;SDS011;1283;47.982;7.834;2022-08-04T08:36:06;9.57;;;2.65;;
2546;SDS011;1283;47.982;7.834;2022-08-04T08:38:37;8.45;;;2.17;;
2546;SDS011;1283;47.982;7.834;2022-08-04T08:47:42;4.63;;;2.22;;
2546;SDS011;1283;47.982;7.834;2022-08-04T08:50:32;6.38;;;2.13;;
2546;SDS011;1283;47.982;7.834;2022-08-04T08:53:12;9.00;;;1.73;;
2546;SDS011;1283;47.982;7.834;2022-08-04T08:55:50;7.43;;;2.30;;
2546;SDS011;1283;47.982;7.834;2022-08-04T09:01:30;3.42;;;1.88;;
2546;SDS011;1283;47.982;7.834;2022-08-04T09:04:15;12.43;;;2.28;;
2546;SDS011;1283;47.982;7.834;2022-08-04T09:06:55;8.20;;;2.33;;
2546;SDS011;1283;47.982;7.834;2022-08-04T09:09:40;5.10;;;2.38;;
2546;SDS011;1283;47.982;7.834;2022-08-04T09:12:14;8.10;;;2.25;;
2546;SDS011;1283;47.982;7.834;2022-08-04T09:14:48;4.97;;;1.88;;
2546;SDS011;1283;47.982;7.834;2022-08-04T09:17:19;3.17;;;1.80;;
2546;SDS011;1283;47.982;7.834;2022-08-04T09:19:50;7.32;;;1.77;;
2546;SDS011;1283;47.982;7.834;2022-08-04T09:22:21;6.95;;;1.83;;
2546;SDS011;1283;47.982;7.834;2022-08-04T09:24:51;5.80;;;1.80;;
2546;SDS011;1283;47.982;7.834;2022-08-04T09:27:23;7.38;;;1.88;;
2546;SDS011;1283;47.982;7.834;2022-08-04T09:29:56;4.03;;;2.00;;
2546;SDS011;1283;47.982;7.834;2022-08-04T09:32:29;9.38;;;1.95;;
2546;SDS011;1283;47.982;7.834;2022-08-04T09:35:11;7.55;;;1.95;;
2546;SDS011;1283;47.982;7.834;2022-08-04T09:37:43;3.20;;;1.80;;
2546;SDS011;1283;47.982;7.834;2022-08-04T09:40:18;8.50;;;2.00;;
2546;SDS011;1283;47.982;7.834;2022-08-04T09:42:54;7.32;;;1.77;;
2546;SDS011;1283;47.982;7.834;2022-08-04T09:45:32;2.35;;;1.58;;
2546;SDS011;1283;47.982;7.834;2022-08-04T09:48:04;4.03;;;1.80;;
2546;SDS011;1283;47.982;7.834;2022-08-04T09:50:34;7.85;;;2.13;;
2546;SDS011;1283;47.982;7.834;2022-08-04T09:53:06;8.18;;;1.83;;
2546;SDS011;1283;47.982;7.834;2022-08-04T09:55:46;5.15;;;1.52;;
2546;SDS011;1283;47.982;7.834;2022-08-04T09:58:16;11.02;;;2.00;;
2546;SDS011;1283;47.982;7.834;2022-08-04T10:00:55;6.60;;;1.60;;
2546;SDS011;1283;47.982;7.834;2022-08-04T10:03:26;3.03;;;1.25;;
2546;SDS011;1283;47.982;7.834;2022-08-04T10:05:59;2.60;;;1.48;;
2546;SDS011;1283;47.982;7.834;2022-08-04T10:08:37;5.03;;;1.20;;
2546;SDS011;1283;47.982;7.834;2022-08-04T10:11:11;2.80;;;1.70;;
2546;SDS011;1283;47.982;7.834;2022-08-04T10:13:45;3.80;;;1.30;;
2546;SDS011;1283;47.982;7.834;2022-08-04T10:16:22;2.97;;;1.50;;
2546;SDS011;1283;47.982;7.834;2022-08-04T10:18:57;4.43;;;1.10;;
2546;SDS011;1283;47.982;7.834;2022-08-04T10:21:30;8.27;;;1.20;;
2546;SDS011;1283;47.982;7.834;2022-08-04T10:24:10;5.72;;;1.30;;
2546;SDS011;1283;47.982;7.834;2022-08-04T10:26:44;7.07;;;1.20;;
2546;SDS011;1283;47.982;7.834;2022-08-04T10:29:13;8.63;;;1.25;;
2546;SDS011;1283;47.982;7.834;2022-08-04T10:31:43;2.58;;;1.30;;
2546;SDS011;1283;47.982;7.834;2022-08-04T10:34:15;10.02;;;1.27;;
2546;SDS011;1283;47.982;7.834;2022-08-04T10:36:47;2.90;;;1.00;;
2546;SDS011;1283;47.982;7.834;2022-08-04T10:39:17;3.65;;;1.00;;
2546;SDS011;1283;47.982;7.834;2022-08-04T10:41:51;2.92;;;0.90;;
2546;SDS011;1283;47.982;7.834;2022-08-04T10:44:24;6.00;;;1.07;;
2546;SDS011;1283;47.982;7.834;2022-08-04T10:46:56;7.13;;;1.00;;
2546;SDS011;1283;47.982;7.834;2022-08-04T10:49:29;2.72;;;1.00;;
2546;SDS011;1283;47.982;7.834;2022-08-04T10:52:00;12.68;;;1.70;;
2546;SDS011;1283;47.982;7.834;2022-08-04T10:54:32;1.10;;;0.90;;
2546;SDS011;1283;47.982;7.834;2022-08-04T10:57:09;5.95;;;0.90;;
2546;SDS011;1283;47.982;7.834;2022-08-04T10:59:40;2.38;;;0.90;;
2546;SDS011;1283;47.982;7.834;2022-08-04T11:02:15;2.58;;;1.02;;
2546;SDS011;1283;47.982;7.834;2022-08-04T11:04:46;1.20;;;0.85;;
2546;SDS011;1283;47.982;7.834;2022-08-04T11:07:14;2.08;;;1.13;;
2546;SDS011;1283;47.982;7.834;2022-08-04T11:09:42;1.45;;;0.90;;
2546;SDS011;1283;47.982;7.834;2022-08-04T11:12:09;1.58;;;0.90;;
2546;SDS011;1283;47.982;7.834;2022-08-04T11:14:41;2.33;;;1.00;;
2546;SDS011;1283;47.982;7.834;2022-08-04T11:17:13;2.42;;;1.00;;
2546;SDS011;1283;47.982;7.834;2022-08-04T11:19:45;3.42;;;0.90;;
2546;SDS011;1283;47.982;7.834;2022-08-04T11:22:14;4.13;;;1.02;;
2546;SDS011;1283;47.982;7.834;2022-08-04T11:24:49;3.92;;;1.15;;
2546;SDS011;1283;47.982;7.834;2022-08-04T11:27:24;6.65;;;1.10;;
2546;SDS011;1283;47.982;7.834;2022-08-04T11:29:56;4.15;;;1.00;;
2546;SDS011;1283;47.982;7.834;2022-08-04T11:32:30;3.50;;;1.10;;
2546;SDS011;1283;47.982;7.834;2022-08-04T11:35:04;5.25;;;1.10;;
2546;SDS011;1283;47.982;7.834;2022-08-04T11:37:35;5.32;;;1.40;;
2546;SDS011;1283;47.982;7.834;2022-08-04T11:40:08;2.70;;;0.90;;
2546;SDS011;1283;47.982;7.834;2022-08-04T11:42:37;20.30;;;1.30;;
2546;SDS011;1283;47.982;7.834;2022-08-04T11:45:06;6.68;;;1.00;;
2546;SDS011;1283;47.982;7.834;2022-08-04T11:47:39;2.17;;;1.00;;
2546;SDS011;1283;47.982;7.834;2022-08-04T11:50:10;1.40;;;0.98;;
2546;SDS011;1283;47.982;7.834;2022-08-04T11:52:38;2.35;;;1.30;;
2546;SDS011;1283;47.982;7.834;2022-08-04T11:55:07;2.92;;;1.15;;
2546;SDS011;1283;47.982;7.834;2022-08-04T11:57:37;9.40;;;0.90;;
2546;SDS011;1283;47.982;7.834;2022-08-04T12:00:04;5.53;;;1.10;;
2546;SDS011;1283;47.982;7.834;2022-08-04T12:05:57;1.90;;;0.85;;
2546;SDS011;1283;47.982;7.834;2022-08-04T12:08:35;4.32;;;1.00;;
2546;SDS011;1283;47.982;7.834;2022-08-04T12:11:12;3.92;;;0.90;;
2546;SDS011;1283;47.982;7.834;2022-08-04T12:13:52;1.05;;;0.95;;
2546;SDS011;1283;47.982;7.834;2022-08-04T12:16:26;1.33;;;1.15;;
2546;SDS011;1283;47.982;7.834;2022-08-04T12:18:57;6.60;;;0.88;;
2546;SDS011;1283;47.982;7.834;2022-08-04T12:21:38;9.45;;;1.08;;
2546;SDS011;1283;47.982;7.834;2022-08-04T12:24:07;33.65;;;1.38;;
2546;SDS011;1283;47.982;7.834;2022-08-04T12:26:41;4.47;;;0.90;;
2546;SDS011;1283;47.982;7.834;2022-08-04T12:29:17;1.90;;;0.90;;
2546;SDS011;1283;47.982;7.834;2022-08-04T12:31:45;2.35;;;0.85;;
2546;SDS011;1283;47.982;7.834;2022-08-04T12:34:15;1.48;;;1.20;;
2546;SDS011;1283;47.982;7.834;2022-08-04T12:36:46;7.40;;;0.98;;
2546;SDS011;1283;47.982;7.834;2022-08-04T12:39:19;12.40;;;1.00;;
2546;SDS011;1283;47.982;7.834;2022-08-04T12:41:50;3.70;;;1.27;;
2546;SDS011;1283;47.982;7.834;2022-08-04T12:44:21;1.67;;;1.10;;
2546;SDS011;1283;47.982;7.834;2022-08-04T12:46:47;10.55;;;1.13;;
2546;SDS011;1283;47.982;7.834;2022-08-04T12:49:14;2.17;;;1.13;;
2546;SDS011;1283;47.982;7.834;2022-08-04T12:51:42;4.43;;;1.23;;
2546;SDS011;1283;47.982;7.834;2022-08-04T12:54:11;1.48;;;0.93;;
2546;SDS011;1283;47.982;7.834;2022-08-04T12:56:38;7.78;;;1.10;;
2546;SDS011;1283;47.982;7.834;2022-08-04T12:59:06;7.18;;;1.30;;
2546;SDS011;1283;47.982;7.834;2022-08-04T13:01:33;1.05;;;0.95;;
2546;SDS011;1283;47.982;7.834;2022-08-04T13:04:02;3.30;;;1.30;;
2546;SDS011;1283;47.982;7.834;2022-08-04T13:06:37;6.78;;;1.45;;
2546;SDS011;1283;47.982;7.834;2022-08-04T13:09:05;1.77;;;1.20;;
2546;SDS011;1283;47.982;7.834;2022-08-04T13:11:35;7.30;;;1.30;;
2546;SDS011;1283;47.982;7.834;2022-08-04T13:14:04;2.15;;;1.30;;
2546;SDS011;1283;47.982;7.834;2022-08-04T13:16:32;6.53;;;1.00;;
2546;SDS011;1283;47.982;7.834;2022-08-04T13:18:59;8.45;;;1.52;;
2546;SDS011;1283;47.982;7.834;2022-08-04T13:21:27;2.45;;;1.05;;
2546;SDS011;1283;47.982;7.834;2022-08-04T13:23:55;1.38;;;1.00;;
2546;SDS011;1283;47.982;7.834;2022-08-04T13:26:23;2.10;;;0.90;;
2546;SDS011;1283;47.982;7.834;2022-08-04T13:28:53;2.60;;;1.17;;
2546;SDS011;1283;47.982;7.834;2022-08-04T13:31:21;3.97;;;1.10;;
2546;SDS011;1283;47.982;7.834;2022-08-04T13:33:50;1.88;;;1.23;;
2546;SDS011;1283;47.982;7.834;2022-08-04T13:36:18;11.07;;;1.23;;
2546;SDS011;1283;47.982;7.834;2022-08-04T13:38:45;6.53;;;1.10;;
2546;SDS011;1283;47.982;7.834;2022-08-04T13:41:15;2.85;;;1.08;;
2546;SDS011;1283;47.982;7.834;2022-08-04T13:43:42;4.35;;;1.05;;
2546;SDS011;1283;47.982;7.834;2022-08-04T13:46:15;2.35;;;1.33;;
2546;SDS011;1283;47.982;7.834;2022-08-04T13:48:44;9.57;;;1.33;;
2546;SDS011;1283;47.982;7.834;2022-08-04T13:51:11;3.35;;;0.90;;
2546;SDS011;1283;47.982;7.834;2022-08-04T13:53:42;1.38;;;0.95;;
2546;SDS011;1283;47.982;7.834;2022-08-04T13:56:09;2.15;;;1.00;;
2546;SDS011;1283;47.982;7.834;2022-08-04T13:58:38;6.40;;;1.20;;
2546;SDS011;1283;47.982;7.834;2022-08-04T14:01:08;6.25;;;1.13;;
2546;SDS011;1283;47.982;7.834;2022-08-04T14:03:38;1.42;;;1.08;;
2546;SDS011;1283;47.982;7.834;2022-08-04T14:06:08;2.80;;;1.00;;
2546;SDS011;1283;47.982;7.834;2022-08-04T14:08:42;1.83;;;0.95;;
2546;SDS011;1283;47.982;7.834;2022-08-04T14:11:11;6.75;;;1.10;;
2546;SDS011;1283;47.982;7.834;2022-08-04T14:13:38;6.00;;;1.17;;
2546;SDS011;1283;47.982;7.834;2022-08-04T14:16:12;4.63;;;1.13;;
2546;SDS011;1283;47.982;7.834;2022-08-04T14:18:41;2.15;;;1.10;;
2546;SDS011;1283;47.982;7.834;2022-08-04T14:21:08;4.38;;;1.20;;
2546;SDS011;1283;47.982;7.834;2022-08-04T14:23:39;3.53;;;1.10;;
2546;SDS011;1283;47.982;7.834;2022-08-04T14:29:05;3.78;;;1.23;;
2546;SDS011;1283;47.982;7.834;2022-08-04T14:31:32;3.45;;;1.05;;
2546;SDS011;1283;47.982;7.834;2022-08-04T14:34:01;1.35;;;0.80;;
2546;SDS011;1283;47.982;7.834;2022-08-04T14:36:27;2.38;;;1.60;;
2546;SDS011;1283;47.982;7.834;2022-08-04T14:39:03;7.25;;;1.20;;
2546;SDS011;1283;47.982;7.834;2022-08-04T14:41:44;4.40;;;1.20;;
2546;SDS011;1283;47.982;7.834;2022-08-04T14:44:11;4.43;;;1.17;;
2546;SDS011;1283;47.982;7.834;2022-08-04T14:46:48;6.57;;;1.17;;
2546;SDS011;1283;47.982;7.834;2022-08-04T14:49:16;5.00;;;1.10;;
2546;SDS011;1283;47.982;7.834;2022-08-04T14:51:44;6.70;;;1.35;;
2546;SDS011;1283;47.982;7.834;2022-08-04T14:54:12;4.13;;;1.20;;
2546;SDS011;1283;47.982;7.834;2022-08-04T14:56:40;9.80;;;1.15;;
2546;SDS011;1283;47.982;7.834;2022-08-04T14:59:09;5.55;;;1.02;;
2546;SDS011;1283;47.982;7.834;2022-08-04T15:01:37;1.77;;;1.10;;
2546;SDS011;1283;47.982;7.834;2022-08-04T15:04:04;5.28;;;1.40;;
2546;SDS011;1283;47.982;7.834;2022-08-04T15:06:33;3.47;;;1.10;;
2546;SDS011;1283;47.982;7.834;2022-08-04T15:09:01;4.45;;;1.10;;
2546;SDS011;1283;47.982;7.834;2022-08-04T15:11:31;4.60;;;1.00;;
2546;SDS011;1283;47.982;7.834;2022-08-04T15:13:58;3.85;;;1.08;;
2546;SDS011;1283;47.982;7.834;2022-08-04T15:16:26;2.80;;;1.60;;
2546;SDS011;1283;47.982;7.834;2022-08-04T15:18:54;2.38;;;1.38;;
2546;SDS011;1283;47.982;7.834;2022-08-04T15:21:21;3.22;;;1.60;;
2546;SDS011;1283;47.982;7.834;2022-08-04T15:23:51;1.30;;;1.20;;
2546;SDS011;1283;47.982;7.834;2022-08-04T15:26:18;1.45;;;1.17;;
2546;SDS011;1283;47.982;7.834;2022-08-04T15:28:50;8.65;;;1.48;;
2546;SDS011;1283;47.982;7.834;2022-08-04T15:31:18;4.93;;;1.30;;
2546;SDS011;1283;47.982;7.834;2022-08-04T15:33:45;3.17;;;1.20;;
2546;SDS011;1283;47.982;7.834;2022-08-04T15:36:14;5.13;;;1.50;;
2546;SDS011;1283;47.982;7.834;2022-08-04T15:38:43;1.98;;;1.30;;
2546;SDS011;1283;47.982;7.834;2022-08-04T15:41:19;3.30;;;1.80;;
2546;SDS011;1283;47.982;7.834;2022-08-04T15:46:25;6.90;;;1.42;;
2546;SDS011;1283;47.982;7.834;2022-08-04T15:49:27;3.63;;;1.25;;
2546;SDS011;1283;47.982;7.834;2022-08-04T15:51:58;6.97;;;1.50;;
2546;SDS011;1283;47.982;7.834;2022-08-04T15:54:24;7.63;;;1.75;;
2546;SDS011;1283;47.982;7.834;2022-08-04T15:56:52;6.32;;;1.15;;
2546;SDS011;1283;47.982;7.834;2022-08-04T16:02:34;7.18;;;1.40;;
2546;SDS011;1283;47.982;7.834;2022-08-04T16:10:43;2.60;;;1.25;;
2546;SDS011;1283;47.982;7.834;2022-08-04T16:13:13;3.75;;;1.33;;
2546;SDS011;1283;47.982;7.834;2022-08-04T16:15:51;3.85;;;1.35;;
2546;SDS011;1283;47.982;7.834;2022-08-04T16:18:19;5.40;;;1.60;;
2546;SDS011;1283;47.982;7.834;2022-08-04T16:21:02;3.45;;;1.73;;
2546;SDS011;1283;47.982;7.834;2022-08-04T16:29:41;1.80;;;1.30;;
2546;SDS011;1283;47.982;7.834;2022-08-04T16:32:12;2.45;;;1.00;;
2546;SDS011;1283;47.982;7.834;2022-08-04T16:34:41;6.28;;;1.48;;
2546;SDS011;1283;47.982;7.834;2022-08-04T16:37:10;3.55;;;1.30;;
2546;SDS011;1283;47.982;7.834;2022-08-04T16:39:37;2.17;;;1.17;;